Terminal Aerodrome Forecast
Issued by NWS New Orleans/Baton Rouge, LA

Home | Current Version | Previous Version | Text Only | Print | Product List | Glossary On
Versions: 1 2 3 4 5 6 7 8 9 10 11 12 13 14 15 16 17
000
FTUS44 KLIX 251736
TAFBTR
TAF
KBTR 251736Z 2518/2618 04006KT P6SM VCTS FEW040CB
     FM260000 04004KT P6SM BKN050
     FM260600 VRB03KT P6SM SCT050
     FM260900 VRB03KT P6SM BKN050
     FM261100 05004KT P6SM SCT050
     FM261700 07005KT P6SM BKN050=

USA.gov is the U.S. government's official web portal to all federal, state and local government web resources and services.